createdAt,value
2018-12-31T00:01:10.468Z,80.32
2018-12-31T00:03:39.028Z,80.54
2018-12-31T00:06:07.886Z,80.65
2018-12-31T00:08:36.509Z,80.00
2018-12-31T00:11:05.134Z,79.88
2018-12-31T00:13:33.616Z,79.81
2018-12-31T00:16:02.254Z,80.04
2018-12-31T00:18:30.954Z,80.20
2018-12-31T00:20:59.893Z,79.68
2018-12-31T00:23:28.384Z,79.54
2018-12-31T00:25:56.934Z,80.04
2018-12-31T00:28:25.557Z,80.45
2018-12-31T00:30:54.193Z,80.87
2018-12-31T00:33:22.824Z,80.49
2018-12-31T00:35:51.454Z,79.69
2018-12-31T00:38:19.947Z,79.29
2018-12-31T00:40:48.450Z,79.31
2018-12-31T00:43:17.078Z,79.46
2018-12-31T00:45:46.044Z,79.82
2018-12-31T00:48:14.590Z,80.14
2018-12-31T00:50:43.154Z,80.54
2018-12-31T00:53:11.780Z,80.76
2018-12-31T00:55:40.438Z,80.81
2018-12-31T00:58:08.965Z,80.55
2018-12-31T01:00:37.518Z,80.93
2018-12-31T01:03:06.137Z,81.17
2018-12-31T01:05:34.771Z,81.01
2018-12-31T01:08:03.256Z,81.25
2018-12-31T01:10:31.960Z,81.73
2018-12-31T01:13:00.586Z,81.93
2018-12-31T01:15:29.237Z,81.76
2018-12-31T01:17:58.224Z,82.01
2018-12-31T01:20:26.859Z,82.33
2018-12-31T01:22:55.478Z,82.63
2018-12-31T01:25:24.105Z,82.64
2018-12-31T01:27:52.737Z,82.91
2018-12-31T01:30:21.395Z,83.06
2018-12-31T01:32:50.131Z,83.32
2018-12-31T01:35:18.620Z,83.58
2018-12-31T01:37:47.243Z,83.76
2018-12-31T01:40:16.092Z,83.47
2018-12-31T01:42:44.575Z,83.31
2018-12-31T01:45:13.133Z,83.13
2018-12-31T01:47:41.929Z,83.57
2018-12-31T01:50:10.562Z,83.25
2018-12-31T01:52:39.113Z,83.11
2018-12-31T01:55:14.047Z,83.14
2018-12-31T01:57:42.587Z,83.25
2018-12-31T02:00:11.216Z,83.55
2018-12-31T02:02:40.097Z,83.55
2018-12-31T02:05:08.722Z,83.72
2018-12-31T02:07:37.201Z,83.65
2018-12-31T02:10:07.040Z,83.56
2018-12-31T02:12:35.672Z,83.70
2018-12-31T02:15:05.183Z,83.88
2018-12-31T02:17:33.678Z,84.30
2018-12-31T02:20:02.184Z,84.81
2018-12-31T02:22:31.075Z,84.94
2018-12-31T02:24:59.696Z,85.22
2018-12-31T02:27:28.191Z,85.38
2018-12-31T02:29:56.717Z,86.04
2018-12-31T02:32:25.346Z,86.29
2018-12-31T02:34:53.965Z,86.06
2018-12-31T02:37:22.699Z,86.39
2018-12-31T02:39:51.249Z,86.53
2018-12-31T02:42:19.881Z,86.61
2018-12-31T02:44:48.701Z,86.25
2018-12-31T02:47:17.192Z,86.68
2018-12-31T02:49:45.688Z,86.65
2018-12-31T02:52:14.356Z,86.53
2018-12-31T02:54:42.990Z,87.02
2018-12-31T02:57:11.545Z,87.09
2018-12-31T02:59:40.149Z,86.84
2018-12-31T03:02:08.850Z,86.81
2018-12-31T03:04:37.468Z,86.85
2018-12-31T03:07:06.419Z,86.38
2018-12-31T03:09:34.897Z,86.20
2018-12-31T03:12:03.529Z,86.17
2018-12-31T03:14:32.423Z,85.73
2018-12-31T03:17:01.055Z,85.62
2018-12-31T03:19:29.681Z,86.25
2018-12-31T03:21:58.535Z,86.37
2018-12-31T03:24:27.017Z,85.73
2018-12-31T03:26:55.633Z,85.17
2018-12-31T03:29:24.613Z,85.12
2018-12-31T03:31:53.164Z,84.99
2018-12-31T03:34:21.635Z,84.96
2018-12-31T03:36:50.651Z,85.33
2018-12-31T03:39:19.267Z,85.66
2018-12-31T03:41:47.897Z,86.10
2018-12-31T03:44:16.491Z,86.52
2018-12-31T03:46:45.122Z,87.17
2018-12-31T03:49:13.741Z,87.33
2018-12-31T03:51:42.261Z,87.52
2018-12-31T03:54:10.881Z,87.72
2018-12-31T03:56:39.433Z,88.23
2018-12-31T03:59:08.121Z,87.97
2018-12-31T04:01:36.737Z,88.13
2018-12-31T04:04:05.367Z,87.34
2018-12-31T04:06:34.250Z,87.31
2018-12-31T04:09:03.728Z,87.17
2018-12-31T04:11:32.360Z,87.12
2018-12-31T04:14:01.025Z,86.46
2018-12-31T04:16:29.510Z,86.53
2018-12-31T04:18:58.004Z,87.26
2018-12-31T04:21:26.881Z,87.12
2018-12-31T04:23:55.500Z,86.72
2018-12-31T04:26:24.059Z,86.91
2018-12-31T04:28:52.736Z,86.93
2018-12-31T04:31:21.356Z,86.54
2018-12-31T04:33:55.599Z,86.56
2018-12-31T04:36:24.528Z,86.65
2018-12-31T04:38:53.152Z,86.56
2018-12-31T04:41:21.709Z,86.67
2018-12-31T04:43:50.487Z,86.66
2018-12-31T04:46:19.116Z,86.58
2018-12-31T04:48:47.753Z,86.62
2018-12-31T04:51:16.541Z,86.12
2018-12-31T04:53:45.028Z,85.81
2018-12-31T04:56:13.657Z,85.79
2018-12-31T04:58:42.581Z,86.06
2018-12-31T05:01:11.132Z,86.58
2018-12-31T05:03:39.684Z,86.91
2018-12-31T05:06:08.650Z,87.32
2018-12-31T05:08:37.281Z,88.10
2018-12-31T05:11:05.836Z,88.89
2018-12-31T05:13:34.503Z,89.94
2018-12-31T05:16:03.063Z,90.92
2018-12-31T05:18:31.725Z,91.53
2018-12-31T05:21:00.658Z,92.01
2018-12-31T05:23:29.302Z,91.96
2018-12-31T05:25:57.811Z,92.17
2018-12-31T05:28:26.705Z,92.37
2018-12-31T05:30:55.343Z,93.09
2018-12-31T05:33:23.957Z,93.00
2018-12-31T05:35:52.602Z,92.92
2018-12-31T05:38:21.080Z,92.67
2018-12-31T05:40:49.801Z,92.84
2018-12-31T05:43:18.507Z,93.08
2018-12-31T05:45:46.988Z,93.20
2018-12-31T05:48:15.474Z,92.97
2018-12-31T05:50:44.175Z,92.88
2018-12-31T05:53:12.668Z,93.20
2018-12-31T05:55:41.289Z,93.36
2018-12-31T05:58:10.208Z,92.94
2018-12-31T06:00:38.779Z,92.45
2018-12-31T06:03:07.340Z,92.25
2018-12-31T06:05:35.978Z,91.98
2018-12-31T06:08:04.651Z,90.75
2018-12-31T06:10:33.275Z,90.35
2018-12-31T06:13:01.773Z,90.11
2018-12-31T06:15:30.692Z,89.92
2018-12-31T06:17:59.311Z,90.13
2018-12-31T06:20:27.875Z,90.05
2018-12-31T06:22:56.407Z,89.91
2018-12-31T06:25:25.027Z,90.46
2018-12-31T06:27:53.657Z,90.55
2018-12-31T06:30:22.399Z,90.28
2018-12-31T06:32:51.030Z,89.77
2018-12-31T06:35:19.607Z,89.25
2018-12-31T06:37:48.365Z,88.40
2018-12-31T06:40:16.995Z,87.60
2018-12-31T06:42:45.626Z,88.08
2018-12-31T06:45:14.316Z,88.84
2018-12-31T06:47:42.811Z,88.51
2018-12-31T06:50:11.428Z,88.60
2018-12-31T06:52:40.317Z,87.69
2018-12-31T06:55:08.867Z,87.83
2018-12-31T06:57:37.365Z,86.23
2018-12-31T07:00:07.041Z,86.47
2018-12-31T07:02:35.665Z,86.81
2018-12-31T07:05:04.596Z,87.27
2018-12-31T07:07:33.512Z,86.14
2018-12-31T07:10:02.148Z,85.73
2018-12-31T07:12:30.753Z,86.63
2018-12-31T07:14:59.775Z,87.25
2018-12-31T07:17:28.433Z,87.08
2018-12-31T07:19:56.999Z,86.17
2018-12-31T07:22:25.524Z,85.37
2018-12-31T07:24:54.278Z,84.59
2018-12-31T07:27:22.903Z,84.90
2018-12-31T07:29:51.439Z,85.12
2018-12-31T07:32:19.930Z,84.85
2018-12-31T07:34:48.551Z,85.41
2018-12-31T07:37:17.424Z,84.99
2018-12-31T07:39:45.926Z,83.09
2018-12-31T07:42:14.493Z,81.98
2018-12-31T07:44:43.493Z,82.55
2018-12-31T07:47:12.121Z,82.49
2018-12-31T07:49:40.667Z,82.04
2018-12-31T07:52:09.269Z,81.17
2018-12-31T07:54:37.939Z,81.12
2018-12-31T07:57:06.739Z,80.72
2018-12-31T07:59:35.591Z,81.02
2018-12-31T08:02:04.131Z,81.55
2018-12-31T08:04:32.756Z,83.24
2018-12-31T08:07:01.454Z,82.17
2018-12-31T08:09:30.023Z,82.95
2018-12-31T08:11:58.587Z,83.45
2018-12-31T08:14:27.503Z,82.92
2018-12-31T08:16:56.136Z,81.84
2018-12-31T08:19:24.619Z,81.76
2018-12-31T08:21:53.456Z,82.33
2018-12-31T08:24:22.123Z,82.93
2018-12-31T08:26:50.765Z,83.03
2018-12-31T08:29:19.623Z,82.10
2018-12-31T08:31:48.257Z,82.49
2018-12-31T08:34:16.743Z,85.00
2018-12-31T08:36:45.277Z,85.09
2018-12-31T08:39:13.900Z,86.21
2018-12-31T08:41:42.536Z,85.80
2018-12-31T08:44:11.064Z,86.20
2018-12-31T08:46:39.713Z,85.91
2018-12-31T08:49:08.439Z,83.88
2018-12-31T08:51:37.399Z,82.50
2018-12-31T08:54:05.957Z,83.40
2018-12-31T08:56:34.440Z,83.00
2018-12-31T08:59:03.308Z,84.77
2018-12-31T09:01:31.942Z,83.82
2018-12-31T09:04:00.437Z,83.81
2018-12-31T09:06:29.283Z,82.48
2018-12-31T09:08:57.924Z,83.94
2018-12-31T09:11:26.404Z,85.02
2018-12-31T09:13:55.336Z,84.44
2018-12-31T09:16:23.982Z,83.06
2018-12-31T09:18:52.554Z,83.53
2018-12-31T09:21:21.397Z,83.44
2018-12-31T09:23:50.034Z,84.76
2018-12-31T09:26:18.670Z,84.60
2018-12-31T09:28:47.548Z,84.79
2018-12-31T09:31:16.103Z,85.07
2018-12-31T09:33:44.740Z,85.29
2018-12-31T09:36:13.800Z,84.48
2018-12-31T09:38:42.292Z,84.34
2018-12-31T09:41:10.785Z,84.80
2018-12-31T09:43:39.765Z,84.94
2018-12-31T09:46:08.405Z,81.80
2018-12-31T09:48:36.919Z,82.17
2018-12-31T09:51:05.928Z,82.54
2018-12-31T09:53:34.426Z,83.01
2018-12-31T09:56:02.994Z,81.89
2018-12-31T09:58:31.898Z,82.54
2018-12-31T10:01:00.524Z,81.93
2018-12-31T10:03:29.006Z,81.03
2018-12-31T10:05:57.816Z,80.88
2018-12-31T10:08:26.434Z,79.04
2018-12-31T10:10:55.072Z,76.24
2018-12-31T10:13:23.785Z,75.66
2018-12-31T10:15:52.354Z,77.21
2018-12-31T10:18:20.974Z,77.58
2018-12-31T10:20:49.946Z,75.39
2018-12-31T10:23:18.426Z,75.05
2018-12-31T10:25:46.970Z,74.83
2018-12-31T10:28:15.865Z,74.80
2018-12-31T10:30:44.363Z,74.76
2018-12-31T10:33:12.991Z,75.91
2018-12-31T10:35:41.646Z,75.73
2018-12-31T10:38:10.131Z,74.62
2018-12-31T10:40:38.688Z,74.87
2018-12-31T10:43:07.603Z,75.04
2018-12-31T10:45:36.235Z,73.99
2018-12-31T10:48:04.782Z,72.08
2018-12-31T10:50:33.551Z,71.26
2018-12-31T10:53:02.168Z,72.23
2018-12-31T10:55:30.804Z,73.53
2018-12-31T10:57:59.600Z,73.55
2018-12-31T11:00:28.226Z,73.72
2018-12-31T11:02:56.846Z,72.38
2018-12-31T11:05:25.651Z,72.47
2018-12-31T11:07:54.127Z,73.09
2018-12-31T11:10:22.743Z,74.04
2018-12-31T11:12:51.351Z,75.33
2018-12-31T11:15:19.902Z,75.31
2018-12-31T11:17:48.528Z,73.71
2018-12-31T11:20:17.365Z,72.37
2018-12-31T11:22:45.858Z,72.54
2018-12-31T11:25:14.352Z,72.70
2018-12-31T11:27:43.320Z,72.49
2018-12-31T11:30:11.944Z,72.75
2018-12-31T11:32:40.436Z,71.18
2018-12-31T11:35:09.271Z,70.73
2018-12-31T11:37:37.899Z,70.50
2018-12-31T11:40:07.309Z,70.22
2018-12-31T11:42:35.826Z,69.87
2018-12-31T11:45:04.948Z,70.84
2018-12-31T11:47:33.562Z,71.43
2018-12-31T11:50:02.085Z,71.98
2018-12-31T11:52:30.712Z,72.66
2018-12-31T11:54:59.322Z,73.15
2018-12-31T11:57:28.256Z,73.26
2018-12-31T11:59:56.736Z,73.29
2018-12-31T12:02:25.362Z,73.80
2018-12-31T12:04:54.218Z,73.60
2018-12-31T12:07:22.778Z,74.34
2018-12-31T12:09:51.260Z,74.59
2018-12-31T12:12:20.543Z,74.28
2018-12-31T12:14:49.166Z,73.94
2018-12-31T12:17:17.660Z,73.65
2018-12-31T12:19:46.254Z,74.51
2018-12-31T12:22:14.882Z,75.61
2018-12-31T12:24:43.774Z,75.74
2018-12-31T12:27:12.439Z,75.70
2018-12-31T12:29:41.064Z,75.90
2018-12-31T12:32:09.607Z,76.63
2018-12-31T12:34:38.557Z,75.49
2018-12-31T12:37:07.185Z,75.72
2018-12-31T12:39:35.811Z,76.54
2018-12-31T12:42:04.466Z,76.52
2018-12-31T12:44:32.957Z,75.94
2018-12-31T12:47:01.578Z,74.90
2018-12-31T12:49:30.481Z,75.28
2018-12-31T12:51:58.970Z,74.34
2018-12-31T12:54:27.452Z,74.73
2018-12-31T12:56:56.114Z,75.40
2018-12-31T12:59:24.740Z,76.02
2018-12-31T13:01:53.299Z,75.92
2018-12-31T13:04:22.149Z,76.13
2018-12-31T13:06:50.774Z,76.26
2018-12-31T13:09:19.404Z,77.17
2018-12-31T13:11:48.192Z,78.05
2018-12-31T13:14:16.754Z,78.59
2018-12-31T13:16:45.378Z,79.37
2018-12-31T13:19:14.384Z,78.80
2018-12-31T13:21:42.939Z,79.18
2018-12-31T13:24:11.571Z,78.82
2018-12-31T13:26:43.706Z,78.47
2018-12-31T13:29:10.713Z,78.37
2018-12-31T13:31:39.192Z,78.69
2018-12-31T13:34:08.014Z,79.24
2018-12-31T13:36:36.646Z,78.97
2018-12-31T13:39:06.172Z,78.44
2018-12-31T13:41:34.924Z,78.69
2018-12-31T13:44:03.475Z,78.70
2018-12-31T13:46:32.091Z,79.21
2018-12-31T13:49:00.688Z,79.54
2018-12-31T13:51:29.312Z,78.70
2018-12-31T13:53:57.941Z,78.44
2018-12-31T13:56:26.479Z,77.33
2018-12-31T13:58:55.027Z,78.05
2018-12-31T14:01:24.592Z,78.55
2018-12-31T14:03:53.573Z,77.86
2018-12-31T14:06:22.130Z,78.22
2018-12-31T14:08:50.619Z,78.23
2018-12-31T14:11:19.616Z,77.82
2018-12-31T14:13:48.245Z,78.20
2018-12-31T14:16:16.792Z,78.61
2018-12-31T14:18:45.572Z,78.67
2018-12-31T14:21:14.196Z,78.16
2018-12-31T14:23:42.877Z,77.34
2018-12-31T14:26:11.550Z,76.90
2018-12-31T14:28:40.182Z,77.12
2018-12-31T14:31:08.801Z,78.18
2018-12-31T14:33:37.597Z,79.60
2018-12-31T14:36:06.219Z,79.15
2018-12-31T14:38:34.847Z,78.76
2018-12-31T14:41:03.603Z,79.57
2018-12-31T14:43:32.361Z,80.37
2018-12-31T14:46:00.986Z,81.29
2018-12-31T14:48:30.007Z,82.07
2018-12-31T14:50:58.642Z,82.55
2018-12-31T14:53:27.239Z,83.48
2018-12-31T14:55:56.403Z,83.86
2018-12-31T14:58:25.026Z,84.13
2018-12-31T15:00:53.595Z,84.52
2018-12-31T15:03:22.511Z,85.10
2018-12-31T15:05:51.140Z,85.49
2018-12-31T15:08:19.996Z,85.83
2018-12-31T15:10:48.997Z,86.00
2018-12-31T15:13:17.615Z,86.35
2018-12-31T15:15:46.100Z,86.54
2018-12-31T15:18:15.131Z,86.55
2018-12-31T15:20:44.142Z,86.69
2018-12-31T15:23:12.768Z,86.76
2018-12-31T15:25:41.566Z,86.64
2018-12-31T15:28:10.127Z,86.79
2018-12-31T15:30:45.092Z,87.05
2018-12-31T15:33:14.233Z,87.05
2018-12-31T15:35:42.785Z,86.86
2018-12-31T15:38:11.263Z,86.17
2018-12-31T15:40:40.175Z,86.37
2018-12-31T15:43:08.817Z,86.33
2018-12-31T15:45:37.580Z,86.43
2018-12-31T15:48:06.539Z,86.48
2018-12-31T15:50:35.022Z,86.33
2018-12-31T15:53:06.380Z,86.45
2018-12-31T15:55:35.359Z,86.92
2018-12-31T15:58:04.173Z,87.02
2018-12-31T16:00:32.664Z,86.57
2018-12-31T16:03:01.436Z,86.48
2018-12-31T16:05:30.065Z,86.32
2018-12-31T16:07:58.688Z,86.38
2018-12-31T16:10:27.681Z,86.68
2018-12-31T16:12:56.244Z,87.01
2018-12-31T16:15:24.895Z,87.66
2018-12-31T16:17:53.829Z,87.86
2018-12-31T16:20:22.386Z,87.82
2018-12-31T16:22:51.248Z,88.27
2018-12-31T16:25:20.085Z,87.89
2018-12-31T16:27:48.578Z,88.01
2018-12-31T16:30:17.213Z,87.72
2018-12-31T16:32:46.163Z,87.72
2018-12-31T16:35:20.700Z,87.85
2018-12-31T16:37:49.183Z,87.67
2018-12-31T16:40:17.848Z,88.00
2018-12-31T16:42:46.471Z,88.21
2018-12-31T16:45:14.953Z,88.88
2018-12-31T16:47:44.196Z,88.89
2018-12-31T16:50:12.907Z,89.11
2018-12-31T16:52:41.546Z,89.06
2018-12-31T16:55:10.475Z,89.45
2018-12-31T16:57:38.953Z,89.25
2018-12-31T17:00:08.447Z,89.31
2018-12-31T17:02:37.128Z,88.94
2018-12-31T17:05:06.352Z,89.12
2018-12-31T17:07:37.704Z,88.98
2018-12-31T17:10:09.195Z,88.74
2018-12-31T17:12:37.749Z,88.96
2018-12-31T17:15:06.784Z,88.82
2018-12-31T17:17:35.707Z,88.73
2018-12-31T17:20:04.745Z,88.90
2018-12-31T17:22:33.225Z,89.09
2018-12-31T17:25:02.055Z,88.96
2018-12-31T17:27:30.692Z,88.25
2018-12-31T17:29:59.243Z,88.01
2018-12-31T17:32:28.122Z,87.17
2018-12-31T17:34:56.753Z,87.13
2018-12-31T17:37:25.367Z,87.08
2018-12-31T17:39:54.352Z,86.96
2018-12-31T17:42:22.841Z,86.89
2018-12-31T17:44:51.493Z,87.04
2018-12-31T17:47:21.150Z,86.23
2018-12-31T17:49:49.767Z,86.47
2018-12-31T17:52:18.473Z,87.07
2018-12-31T17:54:47.070Z,87.68
2018-12-31T17:57:15.555Z,87.09
2018-12-31T17:59:44.204Z,87.07
2018-12-31T18:02:13.152Z,87.79
2018-12-31T18:04:41.985Z,87.77
2018-12-31T18:07:10.465Z,87.71
2018-12-31T18:09:39.310Z,88.08
2018-12-31T18:12:07.956Z,87.47
2018-12-31T18:14:36.449Z,87.26
2018-12-31T18:17:05.464Z,86.47
2018-12-31T18:19:34.094Z,87.74
2018-12-31T18:22:02.728Z,88.05
2018-12-31T18:24:31.262Z,88.58
2018-12-31T18:26:59.747Z,88.13
2018-12-31T18:29:28.382Z,88.06
2018-12-31T18:31:57.386Z,87.94
2018-12-31T18:34:25.953Z,88.34
2018-12-31T18:36:54.584Z,89.67
2018-12-31T18:39:23.436Z,89.27
2018-12-31T18:41:52.135Z,89.33
2018-12-31T18:44:20.697Z,89.05
2018-12-31T18:46:49.224Z,88.88
2018-12-31T18:49:17.941Z,88.70
2018-12-31T18:51:46.577Z,88.25
2018-12-31T18:54:15.127Z,89.07
2018-12-31T18:56:43.903Z,90.07
2018-12-31T18:59:12.529Z,90.42
2018-12-31T19:01:41.503Z,90.79
2018-12-31T19:04:09.986Z,90.87
2018-12-31T19:06:38.612Z,90.38
2018-12-31T19:09:07.673Z,90.04
2018-12-31T19:11:36.306Z,90.27
2018-12-31T19:14:04.945Z,90.18
2018-12-31T19:16:33.635Z,90.37
2018-12-31T19:19:02.120Z,90.36
2018-12-31T19:21:30.612Z,90.33
2018-12-31T19:23:59.483Z,90.20
2018-12-31T19:26:28.116Z,90.20
2018-12-31T19:28:56.608Z,90.29
2018-12-31T19:31:25.394Z,89.87
2018-12-31T19:33:54.041Z,90.06
2018-12-31T19:36:22.663Z,90.55
2018-12-31T19:38:51.569Z,89.63
2018-12-31T19:41:20.057Z,89.19
2018-12-31T19:43:48.694Z,89.39
2018-12-31T19:46:17.431Z,89.67
2018-12-31T19:48:53.358Z,90.68
2018-12-31T19:51:22.188Z,91.07
2018-12-31T19:53:50.667Z,91.22
2018-12-31T19:56:19.301Z,91.60
2018-12-31T19:58:48.224Z,91.53
2018-12-31T20:01:16.844Z,91.13
2018-12-31T20:03:45.337Z,91.21
2018-12-31T20:06:13.986Z,90.96
2018-12-31T20:08:42.637Z,91.17
2018-12-31T20:11:11.270Z,91.99
2018-12-31T20:13:39.982Z,91.38
2018-12-31T20:16:08.488Z,91.14
2018-12-31T20:18:37.121Z,91.44
2018-12-31T20:21:13.808Z,91.27
2018-12-31T20:23:42.417Z,90.58
2018-12-31T20:26:11.437Z,90.37
2018-12-31T20:28:39.991Z,90.51
2018-12-31T20:31:08.541Z,90.97
2018-12-31T20:33:37.204Z,91.61
2018-12-31T20:36:05.828Z,90.94
2018-12-31T20:38:34.445Z,90.68
2018-12-31T20:41:03.032Z,90.76
2018-12-31T20:43:31.648Z,90.69
2018-12-31T20:46:00.267Z,90.67
2018-12-31T20:48:28.952Z,91.08
2018-12-31T20:50:57.456Z,92.19
2018-12-31T20:53:29.169Z,92.76
2018-12-31T20:55:57.830Z,92.32
2018-12-31T20:58:26.329Z,93.10
2018-12-31T21:00:54.963Z,93.36
2018-12-31T21:03:23.850Z,93.55
2018-12-31T21:05:52.424Z,94.06
2018-12-31T21:08:21.045Z,94.60
2018-12-31T21:10:49.729Z,95.06
2018-12-31T21:13:18.348Z,95.53
2018-12-31T21:15:46.985Z,96.28
2018-12-31T21:18:15.890Z,96.82
2018-12-31T21:20:44.799Z,96.98
2018-12-31T21:23:13.352Z,97.07
2018-12-31T21:25:42.245Z,97.47
2018-12-31T21:28:10.872Z,97.57
2018-12-31T21:30:39.504Z,97.19
2018-12-31T21:33:08.702Z,97.10
2018-12-31T21:35:37.201Z,97.00
2018-12-31T21:38:05.833Z,97.26
2018-12-31T21:40:34.496Z,97.13
2018-12-31T21:43:02.993Z,96.91
2018-12-31T21:45:31.617Z,97.15
2018-12-31T21:48:00.402Z,97.37
2018-12-31T21:50:28.903Z,96.16
2018-12-31T21:52:57.563Z,96.28
2018-12-31T21:55:26.568Z,96.70
2018-12-31T21:57:55.127Z,96.41
2018-12-31T22:00:24.121Z,96.38
2018-12-31T22:02:56.936Z,96.61
2018-12-31T22:05:23.300Z,96.53
2018-12-31T22:07:51.789Z,96.89
2018-12-31T22:10:20.528Z,98.54
2018-12-31T22:12:49.427Z,97.61
2018-12-31T22:15:18.056Z,96.91
2018-12-31T22:17:46.732Z,96.23
2018-12-31T22:20:15.231Z,96.27
2018-12-31T22:22:43.872Z,96.33
2018-12-31T22:25:12.946Z,96.65
2018-12-31T22:27:41.590Z,97.01
2018-12-31T22:30:10.218Z,97.35
2018-12-31T22:32:39.101Z,97.41
2018-12-31T22:35:07.660Z,97.99
2018-12-31T22:37:36.303Z,98.24
2018-12-31T22:40:05.688Z,97.43
2018-12-31T22:42:34.174Z,97.12
2018-12-31T22:45:02.658Z,96.67
2018-12-31T22:47:31.521Z,96.86
2018-12-31T22:50:00.155Z,97.20
2018-12-31T22:52:29.021Z,97.60
2018-12-31T22:54:57.874Z,98.34
2018-12-31T22:57:26.506Z,99.18
2018-12-31T22:59:55.142Z,100.00
2018-12-31T23:02:23.944Z,100.00
2018-12-31T23:04:52.942Z,99.96
2018-12-31T23:07:21.528Z,100.00
2018-12-31T23:09:50.395Z,100.00
2018-12-31T23:12:19.041Z,100.00
2018-12-31T23:14:47.675Z,100.00
2018-12-31T23:17:16.565Z,100.00
2018-12-31T23:19:45.143Z,100.00
2018-12-31T23:22:13.806Z,100.00
2018-12-31T23:24:42.731Z,100.00
2018-12-31T23:27:11.235Z,100.00
2018-12-31T23:29:39.736Z,100.00
2018-12-31T23:32:08.821Z,100.00
2018-12-31T23:34:37.417Z,100.00
2018-12-31T23:37:05.929Z,100.00
2018-12-31T23:39:34.697Z,100.00
2018-12-31T23:42:03.336Z,100.00
2018-12-31T23:44:32.245Z,100.00
2018-12-31T23:47:01.091Z,100.00
2018-12-31T23:49:29.586Z,100.00
2018-12-31T23:51:58.229Z,100.00
2018-12-31T23:54:27.151Z,100.00
2018-12-31T23:56:56.023Z,100.00
2018-12-31T23:59:24.585Z,100.00
